sensor_id;sensor_type;location;lat;lon;timestamp;P1;durP1;ratioP1;P2;durP2;ratioP2
56429;SDS011;42332;52.136;20.666;2024-02-21T00:01:45;10.43;;;3.20;;
56429;SDS011;42332;52.136;20.666;2024-02-21T00:04:10;18.55;;;3.78;;
56429;SDS011;42332;52.136;20.666;2024-02-21T00:06:35;15.15;;;4.20;;
56429;SDS011;42332;52.136;20.666;2024-02-21T00:09:01;13.98;;;3.55;;
56429;SDS011;42332;52.136;20.666;2024-02-21T00:11:26;10.25;;;3.13;;
56429;SDS011;42332;52.136;20.666;2024-02-21T00:13:51;21.05;;;3.90;;
56429;SDS011;42332;52.136;20.666;2024-02-21T00:16:17;15.10;;;4.20;;
56429;SDS011;42332;52.136;20.666;2024-02-21T00:18:43;5.30;;;2.08;;
56429;SDS011;42332;52.136;20.666;2024-02-21T00:21:08;11.05;;;3.50;;
56429;SDS011;42332;52.136;20.666;2024-02-21T00:23:34;11.25;;;3.65;;
56429;SDS011;42332;52.136;20.666;2024-02-21T00:25:59;14.52;;;3.17;;
56429;SDS011;42332;52.136;20.666;2024-02-21T00:28:24;16.40;;;4.03;;
56429;SDS011;42332;52.136;20.666;2024-02-21T00:30:50;10.32;;;3.25;;
56429;SDS011;42332;52.136;20.666;2024-02-21T00:33:19;16.33;;;3.90;;
56429;SDS011;42332;52.136;20.666;2024-02-21T00:35:44;16.65;;;3.05;;
56429;SDS011;42332;52.136;20.666;2024-02-21T00:38:09;16.02;;;3.60;;
56429;SDS011;42332;52.136;20.666;2024-02-21T00:40:35;13.02;;;4.07;;
56429;SDS011;42332;52.136;20.666;2024-02-21T00:43:00;9.25;;;3.60;;
56429;SDS011;42332;52.136;20.666;2024-02-21T00:45:25;12.32;;;3.90;;
56429;SDS011;42332;52.136;20.666;2024-02-21T00:47:51;18.35;;;3.72;;
56429;SDS011;42332;52.136;20.666;2024-02-21T00:50:16;14.20;;;3.30;;
56429;SDS011;42332;52.136;20.666;2024-02-21T00:52:42;19.20;;;3.60;;
56429;SDS011;42332;52.136;20.666;2024-02-21T00:55:08;23.95;;;3.95;;
56429;SDS011;42332;52.136;20.666;2024-02-21T00:57:34;13.35;;;3.60;;
56429;SDS011;42332;52.136;20.666;2024-02-21T01:00:00;8.85;;;2.63;;
56429;SDS011;42332;52.136;20.666;2024-02-21T01:02:26;10.68;;;2.95;;
56429;SDS011;42332;52.136;20.666;2024-02-21T01:04:52;8.68;;;2.80;;
56429;SDS011;42332;52.136;20.666;2024-02-21T01:07:17;16.50;;;3.30;;
56429;SDS011;42332;52.136;20.666;2024-02-21T01:09:42;10.88;;;2.92;;
56429;SDS011;42332;52.136;20.666;2024-02-21T01:12:08;9.63;;;2.88;;
56429;SDS011;42332;52.136;20.666;2024-02-21T01:14:33;20.63;;;3.60;;
56429;SDS011;42332;52.136;20.666;2024-02-21T01:16:58;5.00;;;2.22;;
56429;SDS011;42332;52.136;20.666;2024-02-21T01:19:24;11.18;;;3.17;;
56429;SDS011;42332;52.136;20.666;2024-02-21T01:21:49;10.70;;;3.72;;
56429;SDS011;42332;52.136;20.666;2024-02-21T01:24:14;12.23;;;2.95;;
56429;SDS011;42332;52.136;20.666;2024-02-21T01:26:40;16.08;;;3.85;;
56429;SDS011;42332;52.136;20.666;2024-02-21T01:29:06;4.07;;;2.03;;
56429;SDS011;42332;52.136;20.666;2024-02-21T01:31:31;12.60;;;3.47;;
56429;SDS011;42332;52.136;20.666;2024-02-21T01:33:56;18.27;;;3.92;;
56429;SDS011;42332;52.136;20.666;2024-02-21T01:36:23;7.30;;;2.92;;
56429;SDS011;42332;52.136;20.666;2024-02-21T01:38:48;4.93;;;2.15;;
56429;SDS011;42332;52.136;20.666;2024-02-21T01:41:13;16.00;;;4.05;;
56429;SDS011;42332;52.136;20.666;2024-02-21T01:43:39;6.88;;;2.33;;
56429;SDS011;42332;52.136;20.666;2024-02-21T01:46:04;24.02;;;4.05;;
56429;SDS011;42332;52.136;20.666;2024-02-21T01:48:29;10.57;;;3.53;;
56429;SDS011;42332;52.136;20.666;2024-02-21T01:50:55;15.07;;;4.20;;
56429;SDS011;42332;52.136;20.666;2024-02-21T01:53:23;9.10;;;3.22;;
56429;SDS011;42332;52.136;20.666;2024-02-21T01:55:50;8.35;;;3.35;;
56429;SDS011;42332;52.136;20.666;2024-02-21T01:58:16;7.70;;;2.85;;
56429;SDS011;42332;52.136;20.666;2024-02-21T02:00:42;12.20;;;4.28;;
56429;SDS011;42332;52.136;20.666;2024-02-21T02:03:11;15.20;;;4.13;;
56429;SDS011;42332;52.136;20.666;2024-02-21T02:05:46;15.67;;;3.80;;
56429;SDS011;42332;52.136;20.666;2024-02-21T02:08:16;9.00;;;2.97;;
56429;SDS011;42332;52.136;20.666;2024-02-21T02:10:42;9.38;;;3.67;;
56429;SDS011;42332;52.136;20.666;2024-02-21T02:13:08;14.07;;;4.20;;
56429;SDS011;42332;52.136;20.666;2024-02-21T02:15:46;11.02;;;3.72;;
56429;SDS011;42332;52.136;20.666;2024-02-21T02:18:13;15.80;;;4.15;;
56429;SDS011;42332;52.136;20.666;2024-02-21T02:20:40;17.35;;;3.72;;
56429;SDS011;42332;52.136;20.666;2024-02-21T02:25:57;17.60;;;4.18;;
56429;SDS011;42332;52.136;20.666;2024-02-21T02:28:23;20.90;;;4.50;;
56429;SDS011;42332;52.136;20.666;2024-02-21T02:30:49;11.77;;;3.97;;
56429;SDS011;42332;52.136;20.666;2024-02-21T02:33:15;12.85;;;3.67;;
56429;SDS011;42332;52.136;20.666;2024-02-21T02:35:43;16.20;;;4.28;;
56429;SDS011;42332;52.136;20.666;2024-02-21T02:38:08;24.10;;;4.40;;
56429;SDS011;42332;52.136;20.666;2024-02-21T02:40:34;14.73;;;4.55;;
56429;SDS011;42332;52.136;20.666;2024-02-21T02:43:00;12.60;;;4.68;;
56429;SDS011;42332;52.136;20.666;2024-02-21T02:45:26;18.80;;;4.85;;
56429;SDS011;42332;52.136;20.666;2024-02-21T02:47:54;10.60;;;4.50;;
56429;SDS011;42332;52.136;20.666;2024-02-21T02:50:21;26.33;;;5.28;;
56429;SDS011;42332;52.136;20.666;2024-02-21T02:52:47;13.70;;;4.65;;
56429;SDS011;42332;52.136;20.666;2024-02-21T02:55:13;20.42;;;5.63;;
56429;SDS011;42332;52.136;20.666;2024-02-21T02:57:39;14.77;;;5.53;;
56429;SDS011;42332;52.136;20.666;2024-02-21T03:00:06;13.55;;;5.05;;
56429;SDS011;42332;52.136;20.666;2024-02-21T03:02:32;15.13;;;5.35;;
56429;SDS011;42332;52.136;20.666;2024-02-21T03:04:57;11.02;;;4.40;;
56429;SDS011;42332;52.136;20.666;2024-02-21T03:07:24;26.42;;;6.15;;
56429;SDS011;42332;52.136;20.666;2024-02-21T03:09:50;18.38;;;5.43;;
56429;SDS011;42332;52.136;20.666;2024-02-21T03:12:15;13.80;;;5.13;;
56429;SDS011;42332;52.136;20.666;2024-02-21T03:14:49;17.48;;;5.25;;
56429;SDS011;42332;52.136;20.666;2024-02-21T03:17:14;13.98;;;5.10;;
56429;SDS011;42332;52.136;20.666;2024-02-21T03:19:40;14.23;;;5.70;;
56429;SDS011;42332;52.136;20.666;2024-02-21T03:22:05;15.60;;;5.32;;
56429;SDS011;42332;52.136;20.666;2024-02-21T03:24:31;19.52;;;5.40;;
56429;SDS011;42332;52.136;20.666;2024-02-21T03:26:56;21.23;;;5.47;;
56429;SDS011;42332;52.136;20.666;2024-02-21T03:29:23;20.23;;;4.55;;
56429;SDS011;42332;52.136;20.666;2024-02-21T03:31:49;16.83;;;4.68;;
56429;SDS011;42332;52.136;20.666;2024-02-21T03:34:14;16.98;;;4.82;;
56429;SDS011;42332;52.136;20.666;2024-02-21T03:36:40;17.92;;;5.30;;
56429;SDS011;42332;52.136;20.666;2024-02-21T03:39:05;19.50;;;5.53;;
56429;SDS011;42332;52.136;20.666;2024-02-21T03:41:30;16.30;;;4.85;;
56429;SDS011;42332;52.136;20.666;2024-02-21T03:43:56;17.02;;;4.97;;
56429;SDS011;42332;52.136;20.666;2024-02-21T03:46:21;19.90;;;5.68;;
56429;SDS011;42332;52.136;20.666;2024-02-21T03:48:49;14.63;;;6.45;;
56429;SDS011;42332;52.136;20.666;2024-02-21T03:51:14;12.48;;;4.60;;
56429;SDS011;42332;52.136;20.666;2024-02-21T03:53:40;32.40;;;5.97;;
56429;SDS011;42332;52.136;20.666;2024-02-21T03:56:05;16.23;;;5.63;;
56429;SDS011;42332;52.136;20.666;2024-02-21T03:58:32;16.55;;;4.68;;
56429;SDS011;42332;52.136;20.666;2024-02-21T04:00:59;17.30;;;5.05;;
56429;SDS011;42332;52.136;20.666;2024-02-21T04:03:25;19.10;;;5.43;;
56429;SDS011;42332;52.136;20.666;2024-02-21T04:05:51;18.35;;;5.45;;
56429;SDS011;42332;52.136;20.666;2024-02-21T04:08:16;17.60;;;5.05;;
56429;SDS011;42332;52.136;20.666;2024-02-21T04:10:42;22.65;;;6.70;;
56429;SDS011;42332;52.136;20.666;2024-02-21T04:13:07;24.50;;;6.28;;
56429;SDS011;42332;52.136;20.666;2024-02-21T04:15:32;20.67;;;6.63;;
56429;SDS011;42332;52.136;20.666;2024-02-21T04:17:58;18.10;;;7.47;;
56429;SDS011;42332;52.136;20.666;2024-02-21T04:20:23;19.88;;;5.88;;
56429;SDS011;42332;52.136;20.666;2024-02-21T04:22:49;15.63;;;6.18;;
56429;SDS011;42332;52.136;20.666;2024-02-21T04:25:14;24.80;;;7.03;;
56429;SDS011;42332;52.136;20.666;2024-02-21T04:27:40;31.17;;;6.72;;
56429;SDS011;42332;52.136;20.666;2024-02-21T04:30:06;23.23;;;7.45;;
56429;SDS011;42332;52.136;20.666;2024-02-21T04:32:32;17.77;;;6.50;;
56429;SDS011;42332;52.136;20.666;2024-02-21T04:34:57;15.70;;;5.22;;
56429;SDS011;42332;52.136;20.666;2024-02-21T04:37:23;21.73;;;6.90;;
56429;SDS011;42332;52.136;20.666;2024-02-21T04:39:49;24.42;;;7.10;;
56429;SDS011;42332;52.136;20.666;2024-02-21T04:42:15;22.30;;;6.60;;
56429;SDS011;42332;52.136;20.666;2024-02-21T04:44:40;22.73;;;7.10;;
56429;SDS011;42332;52.136;20.666;2024-02-21T04:47:06;22.38;;;7.25;;
56429;SDS011;42332;52.136;20.666;2024-02-21T04:49:32;18.55;;;6.93;;
56429;SDS011;42332;52.136;20.666;2024-02-21T04:51:57;16.45;;;7.25;;
56429;SDS011;42332;52.136;20.666;2024-02-21T04:54:22;19.15;;;7.63;;
56429;SDS011;42332;52.136;20.666;2024-02-21T04:56:48;19.88;;;6.78;;
56429;SDS011;42332;52.136;20.666;2024-02-21T04:59:13;19.25;;;7.05;;
56429;SDS011;42332;52.136;20.666;2024-02-21T05:01:39;20.02;;;6.93;;
56429;SDS011;42332;52.136;20.666;2024-02-21T05:04:04;28.20;;;8.75;;
56429;SDS011;42332;52.136;20.666;2024-02-21T05:06:29;20.17;;;8.82;;
56429;SDS011;42332;52.136;20.666;2024-02-21T05:08:55;29.23;;;8.50;;
56429;SDS011;42332;52.136;20.666;2024-02-21T05:11:21;27.88;;;8.75;;
56429;SDS011;42332;52.136;20.666;2024-02-21T05:13:47;22.35;;;8.18;;
56429;SDS011;42332;52.136;20.666;2024-02-21T05:16:12;25.60;;;8.07;;
56429;SDS011;42332;52.136;20.666;2024-02-21T05:18:38;27.65;;;9.57;;
56429;SDS011;42332;52.136;20.666;2024-02-21T05:21:03;21.33;;;8.45;;
56429;SDS011;42332;52.136;20.666;2024-02-21T05:23:29;24.38;;;9.15;;
56429;SDS011;42332;52.136;20.666;2024-02-21T05:25:55;29.88;;;8.57;;
56429;SDS011;42332;52.136;20.666;2024-02-21T05:28:20;22.88;;;8.65;;
56429;SDS011;42332;52.136;20.666;2024-02-21T05:30:45;24.52;;;9.05;;
56429;SDS011;42332;52.136;20.666;2024-02-21T05:33:11;26.25;;;8.95;;
56429;SDS011;42332;52.136;20.666;2024-02-21T05:35:37;35.80;;;9.85;;
56429;SDS011;42332;52.136;20.666;2024-02-21T05:38:03;23.30;;;10.48;;
56429;SDS011;42332;52.136;20.666;2024-02-21T05:40:36;28.75;;;9.40;;
56429;SDS011;42332;52.136;20.666;2024-02-21T05:43:01;26.20;;;10.15;;
56429;SDS011;42332;52.136;20.666;2024-02-21T05:45:27;43.67;;;13.52;;
56429;SDS011;42332;52.136;20.666;2024-02-21T05:47:52;33.63;;;12.30;;
56429;SDS011;42332;52.136;20.666;2024-02-21T05:50:18;39.72;;;12.98;;
56429;SDS011;42332;52.136;20.666;2024-02-21T05:52:43;34.42;;;12.38;;
56429;SDS011;42332;52.136;20.666;2024-02-21T05:55:09;23.27;;;9.27;;
56429;SDS011;42332;52.136;20.666;2024-02-21T05:57:34;28.80;;;10.65;;
56429;SDS011;42332;52.136;20.666;2024-02-21T06:00:00;29.67;;;9.65;;
56429;SDS011;42332;52.136;20.666;2024-02-21T06:02:25;36.45;;;9.73;;
56429;SDS011;42332;52.136;20.666;2024-02-21T06:04:50;25.83;;;9.30;;
56429;SDS011;42332;52.136;20.666;2024-02-21T06:07:16;30.67;;;9.75;;
56429;SDS011;42332;52.136;20.666;2024-02-21T06:09:41;37.10;;;9.90;;
56429;SDS011;42332;52.136;20.666;2024-02-21T06:12:07;28.10;;;9.68;;
56429;SDS011;42332;52.136;20.666;2024-02-21T06:14:32;25.30;;;9.13;;
56429;SDS011;42332;52.136;20.666;2024-02-21T06:16:57;32.58;;;10.38;;
56429;SDS011;42332;52.136;20.666;2024-02-21T06:19:23;26.83;;;11.35;;
56429;SDS011;42332;52.136;20.666;2024-02-21T06:21:48;31.52;;;10.43;;
56429;SDS011;42332;52.136;20.666;2024-02-21T06:24:14;28.13;;;9.60;;
56429;SDS011;42332;52.136;20.666;2024-02-21T06:26:40;24.90;;;7.10;;
56429;SDS011;42332;52.136;20.666;2024-02-21T06:29:06;22.90;;;9.13;;
56429;SDS011;42332;52.136;20.666;2024-02-21T06:31:31;25.20;;;10.02;;
56429;SDS011;42332;52.136;20.666;2024-02-21T06:33:57;23.33;;;8.55;;
56429;SDS011;42332;52.136;20.666;2024-02-21T06:36:22;22.40;;;9.00;;
56429;SDS011;42332;52.136;20.666;2024-02-21T06:38:47;32.53;;;10.60;;
56429;SDS011;42332;52.136;20.666;2024-02-21T06:41:16;22.27;;;8.45;;
56429;SDS011;42332;52.136;20.666;2024-02-21T06:43:44;29.67;;;9.82;;
56429;SDS011;42332;52.136;20.666;2024-02-21T06:46:12;34.95;;;10.95;;
56429;SDS011;42332;52.136;20.666;2024-02-21T06:48:37;38.22;;;11.45;;
56429;SDS011;42332;52.136;20.666;2024-02-21T06:51:03;36.50;;;9.77;;
56429;SDS011;42332;52.136;20.666;2024-02-21T06:53:29;41.38;;;11.77;;
56429;SDS011;42332;52.136;20.666;2024-02-21T06:55:55;37.60;;;12.35;;
56429;SDS011;42332;52.136;20.666;2024-02-21T06:58:20;29.77;;;12.30;;
56429;SDS011;42332;52.136;20.666;2024-02-21T07:00:45;40.22;;;12.70;;
56429;SDS011;42332;52.136;20.666;2024-02-21T07:03:11;24.63;;;9.68;;
56429;SDS011;42332;52.136;20.666;2024-02-21T07:05:36;28.55;;;8.88;;
56429;SDS011;42332;52.136;20.666;2024-02-21T07:08:02;39.13;;;12.30;;
56429;SDS011;42332;52.136;20.666;2024-02-21T07:10:28;33.67;;;12.25;;
56429;SDS011;42332;52.136;20.666;2024-02-21T07:12:54;32.65;;;12.18;;
56429;SDS011;42332;52.136;20.666;2024-02-21T07:15:20;40.15;;;11.85;;
56429;SDS011;42332;52.136;20.666;2024-02-21T07:17:45;39.78;;;10.65;;
56429;SDS011;42332;52.136;20.666;2024-02-21T07:20:11;28.85;;;12.15;;
56429;SDS011;42332;52.136;20.666;2024-02-21T07:22:36;34.65;;;13.27;;
56429;SDS011;42332;52.136;20.666;2024-02-21T07:25:02;28.67;;;8.45;;
56429;SDS011;42332;52.136;20.666;2024-02-21T07:27:27;43.25;;;14.00;;
56429;SDS011;42332;52.136;20.666;2024-02-21T07:29:55;42.85;;;14.13;;
56429;SDS011;42332;52.136;20.666;2024-02-21T07:32:21;46.20;;;13.73;;
56429;SDS011;42332;52.136;20.666;2024-02-21T07:34:46;34.83;;;11.90;;
56429;SDS011;42332;52.136;20.666;2024-02-21T07:37:12;29.48;;;9.48;;
56429;SDS011;42332;52.136;20.666;2024-02-21T07:39:37;31.80;;;11.32;;
56429;SDS011;42332;52.136;20.666;2024-02-21T07:42:03;38.95;;;12.23;;
56429;SDS011;42332;52.136;20.666;2024-02-21T07:44:28;33.70;;;12.05;;
56429;SDS011;42332;52.136;20.666;2024-02-21T07:46:54;32.03;;;11.32;;
56429;SDS011;42332;52.136;20.666;2024-02-21T07:49:19;43.22;;;12.70;;
56429;SDS011;42332;52.136;20.666;2024-02-21T07:51:44;60.17;;;13.20;;
56429;SDS011;42332;52.136;20.666;2024-02-21T07:54:10;43.00;;;13.93;;
56429;SDS011;42332;52.136;20.666;2024-02-21T07:56:35;37.38;;;13.07;;
56429;SDS011;42332;52.136;20.666;2024-02-21T07:59:01;38.50;;;12.48;;
56429;SDS011;42332;52.136;20.666;2024-02-21T08:01:26;36.42;;;11.85;;
56429;SDS011;42332;52.136;20.666;2024-02-21T08:03:51;46.65;;;12.20;;
56429;SDS011;42332;52.136;20.666;2024-02-21T08:06:17;38.60;;;13.00;;
56429;SDS011;42332;52.136;20.666;2024-02-21T08:08:42;33.92;;;11.13;;
56429;SDS011;42332;52.136;20.666;2024-02-21T08:11:07;33.75;;;9.13;;
56429;SDS011;42332;52.136;20.666;2024-02-21T08:13:33;30.02;;;10.80;;
56429;SDS011;42332;52.136;20.666;2024-02-21T08:15:58;40.45;;;11.55;;
56429;SDS011;42332;52.136;20.666;2024-02-21T08:18:24;35.15;;;11.68;;
56429;SDS011;42332;52.136;20.666;2024-02-21T08:20:49;38.67;;;11.35;;
56429;SDS011;42332;52.136;20.666;2024-02-21T08:23:18;33.03;;;10.57;;
56429;SDS011;42332;52.136;20.666;2024-02-21T08:25:44;39.05;;;11.30;;
56429;SDS011;42332;52.136;20.666;2024-02-21T08:28:09;36.55;;;11.25;;
56429;SDS011;42332;52.136;20.666;2024-02-21T08:30:34;30.58;;;11.23;;
56429;SDS011;42332;52.136;20.666;2024-02-21T08:33:00;27.08;;;8.82;;
56429;SDS011;42332;52.136;20.666;2024-02-21T08:35:25;13.27;;;5.32;;
56429;SDS011;42332;52.136;20.666;2024-02-21T08:37:51;31.20;;;9.75;;
56429;SDS011;42332;52.136;20.666;2024-02-21T08:40:16;28.58;;;11.68;;
56429;SDS011;42332;52.136;20.666;2024-02-21T08:42:46;20.63;;;8.88;;
56429;SDS011;42332;52.136;20.666;2024-02-21T08:45:12;29.58;;;10.60;;
56429;SDS011;42332;52.136;20.666;2024-02-21T08:47:40;27.85;;;9.40;;
56429;SDS011;42332;52.136;20.666;2024-02-21T08:50:06;34.20;;;10.45;;
56429;SDS011;42332;52.136;20.666;2024-02-21T08:52:32;31.02;;;10.43;;
56429;SDS011;42332;52.136;20.666;2024-02-21T08:54:58;30.40;;;9.98;;
56429;SDS011;42332;52.136;20.666;2024-02-21T08:57:23;24.98;;;9.00;;
56429;SDS011;42332;52.136;20.666;2024-02-21T08:59:48;26.95;;;10.23;;
56429;SDS011;42332;52.136;20.666;2024-02-21T09:02:14;33.70;;;9.55;;
56429;SDS011;42332;52.136;20.666;2024-02-21T09:04:42;21.60;;;9.00;;
56429;SDS011;42332;52.136;20.666;2024-02-21T09:07:09;23.58;;;8.65;;
56429;SDS011;42332;52.136;20.666;2024-02-21T09:09:34;15.13;;;5.38;;
56429;SDS011;42332;52.136;20.666;2024-02-21T09:12:00;21.00;;;9.27;;
56429;SDS011;42332;52.136;20.666;2024-02-21T09:14:33;40.53;;;9.27;;
56429;SDS011;42332;52.136;20.666;2024-02-21T09:16:59;36.17;;;8.95;;
56429;SDS011;42332;52.136;20.666;2024-02-21T09:19:24;25.30;;;9.00;;
56429;SDS011;42332;52.136;20.666;2024-02-21T09:21:50;27.73;;;9.32;;
56429;SDS011;42332;52.136;20.666;2024-02-21T09:24:15;20.05;;;7.70;;
56429;SDS011;42332;52.136;20.666;2024-02-21T09:26:40;22.20;;;7.38;;
56429;SDS011;42332;52.136;20.666;2024-02-21T09:29:06;26.17;;;7.82;;
56429;SDS011;42332;52.136;20.666;2024-02-21T09:31:31;22.77;;;7.78;;
56429;SDS011;42332;52.136;20.666;2024-02-21T09:33:57;19.73;;;7.75;;
56429;SDS011;42332;52.136;20.666;2024-02-21T09:36:22;25.67;;;6.65;;
56429;SDS011;42332;52.136;20.666;2024-02-21T09:38:47;22.40;;;6.40;;
56429;SDS011;42332;52.136;20.666;2024-02-21T09:41:17;20.55;;;6.10;;
56429;SDS011;42332;52.136;20.666;2024-02-21T09:43:43;26.13;;;8.70;;
56429;SDS011;42332;52.136;20.666;2024-02-21T09:46:17;24.80;;;7.85;;
56429;SDS011;42332;52.136;20.666;2024-02-21T09:52:14;24.63;;;8.07;;
56429;SDS011;42332;52.136;20.666;2024-02-21T09:54:40;28.80;;;8.98;;
56429;SDS011;42332;52.136;20.666;2024-02-21T09:57:09;29.83;;;7.88;;
56429;SDS011;42332;52.136;20.666;2024-02-21T09:59:34;20.92;;;8.57;;
56429;SDS011;42332;52.136;20.666;2024-02-21T10:02:00;34.38;;;8.45;;
56429;SDS011;42332;52.136;20.666;2024-02-21T10:04:26;24.83;;;7.93;;
56429;SDS011;42332;52.136;20.666;2024-02-21T10:06:53;19.70;;;6.53;;
56429;SDS011;42332;52.136;20.666;2024-02-21T10:09:25;28.38;;;9.75;;
56429;SDS011;42332;52.136;20.666;2024-02-21T10:11:55;24.35;;;8.57;;
56429;SDS011;42332;52.136;20.666;2024-02-21T10:14:21;36.13;;;10.40;;
56429;SDS011;42332;52.136;20.666;2024-02-21T10:16:47;19.27;;;8.32;;
56429;SDS011;42332;52.136;20.666;2024-02-21T10:19:17;24.80;;;9.13;;
56429;SDS011;42332;52.136;20.666;2024-02-21T10:24:32;20.65;;;8.75;;
56429;SDS011;42332;52.136;20.666;2024-02-21T10:27:03;19.23;;;7.70;;
56429;SDS011;42332;52.136;20.666;2024-02-21T10:34:33;22.80;;;9.55;;
56429;SDS011;42332;52.136;20.666;2024-02-21T10:36:59;22.35;;;7.07;;
56429;SDS011;42332;52.136;20.666;2024-02-21T10:39:29;28.85;;;9.00;;
56429;SDS011;42332;52.136;20.666;2024-02-21T10:41:58;36.10;;;10.02;;
56429;SDS011;42332;52.136;20.666;2024-02-21T10:44:25;27.00;;;10.23;;
56429;SDS011;42332;52.136;20.666;2024-02-21T10:46:54;25.00;;;10.20;;
56429;SDS011;42332;52.136;20.666;2024-02-21T10:49:22;28.30;;;10.55;;
56429;SDS011;42332;52.136;20.666;2024-02-21T10:51:56;21.08;;;8.52;;
56429;SDS011;42332;52.136;20.666;2024-02-21T10:54:56;17.65;;;8.00;;
56429;SDS011;42332;52.136;20.666;2024-02-21T10:57:24;28.85;;;9.30;;
56429;SDS011;42332;52.136;20.666;2024-02-21T10:59:50;28.33;;;10.02;;
56429;SDS011;42332;52.136;20.666;2024-02-21T11:02:16;25.85;;;9.35;;
56429;SDS011;42332;52.136;20.666;2024-02-21T11:04:41;23.35;;;9.25;;
56429;SDS011;42332;52.136;20.666;2024-02-21T11:07:08;24.05;;;8.27;;
56429;SDS011;42332;52.136;20.666;2024-02-21T11:09:34;34.95;;;9.35;;
56429;SDS011;42332;52.136;20.666;2024-02-21T11:12:03;25.90;;;8.20;;
56429;SDS011;42332;52.136;20.666;2024-02-21T11:14:29;30.77;;;9.98;;
56429;SDS011;42332;52.136;20.666;2024-02-21T11:17:01;25.45;;;10.57;;
56429;SDS011;42332;52.136;20.666;2024-02-21T11:19:27;21.90;;;8.48;;
56429;SDS011;42332;52.136;20.666;2024-02-21T11:21:54;20.73;;;7.93;;
56429;SDS011;42332;52.136;20.666;2024-02-21T11:24:29;26.17;;;8.60;;
56429;SDS011;42332;52.136;20.666;2024-02-21T11:29:47;17.30;;;7.63;;
56429;SDS011;42332;52.136;20.666;2024-02-21T11:37:18;18.05;;;7.80;;
56429;SDS011;42332;52.136;20.666;2024-02-21T11:39:44;27.33;;;8.70;;
56429;SDS011;42332;52.136;20.666;2024-02-21T11:42:09;26.25;;;8.63;;
56429;SDS011;42332;52.136;20.666;2024-02-21T11:44:36;24.92;;;9.27;;
56429;SDS011;42332;52.136;20.666;2024-02-21T11:47:07;30.05;;;10.43;;
56429;SDS011;42332;52.136;20.666;2024-02-21T11:49:36;25.23;;;9.15;;
56429;SDS011;42332;52.136;20.666;2024-02-21T11:52:03;31.77;;;10.45;;
56429;SDS011;42332;52.136;20.666;2024-02-21T11:54:29;34.00;;;11.93;;
56429;SDS011;42332;52.136;20.666;2024-02-21T11:56:55;26.55;;;10.88;;
56429;SDS011;42332;52.136;20.666;2024-02-21T11:59:21;29.75;;;11.90;;
56429;SDS011;42332;52.136;20.666;2024-02-21T12:01:46;49.85;;;13.52;;
56429;SDS011;42332;52.136;20.666;2024-02-21T12:04:13;28.05;;;11.02;;
56429;SDS011;42332;52.136;20.666;2024-02-21T12:06:38;24.77;;;9.77;;
56429;SDS011;42332;52.136;20.666;2024-02-21T12:09:07;36.90;;;10.60;;
56429;SDS011;42332;52.136;20.666;2024-02-21T12:11:34;24.95;;;10.10;;
56429;SDS011;42332;52.136;20.666;2024-02-21T12:14:03;30.70;;;11.35;;
56429;SDS011;42332;52.136;20.666;2024-02-21T12:16:30;23.63;;;9.93;;
56429;SDS011;42332;52.136;20.666;2024-02-21T12:18:56;32.75;;;11.63;;
56429;SDS011;42332;52.136;20.666;2024-02-21T12:21:29;25.67;;;12.35;;
56429;SDS011;42332;52.136;20.666;2024-02-21T12:23:55;36.80;;;10.55;;
56429;SDS011;42332;52.136;20.666;2024-02-21T12:26:21;37.75;;;11.80;;
56429;SDS011;42332;52.136;20.666;2024-02-21T12:28:47;29.20;;;10.90;;
56429;SDS011;42332;52.136;20.666;2024-02-21T12:31:12;32.30;;;12.02;;
56429;SDS011;42332;52.136;20.666;2024-02-21T12:33:38;49.85;;;13.32;;
56429;SDS011;42332;52.136;20.666;2024-02-21T12:36:04;32.95;;;10.77;;
56429;SDS011;42332;52.136;20.666;2024-02-21T12:38:29;34.40;;;11.18;;
56429;SDS011;42332;52.136;20.666;2024-02-21T12:40:55;22.38;;;9.20;;
56429;SDS011;42332;52.136;20.666;2024-02-21T12:43:22;32.55;;;11.18;;
56429;SDS011;42332;52.136;20.666;2024-02-21T12:45:47;35.38;;;10.27;;
56429;SDS011;42332;52.136;20.666;2024-02-21T12:48:13;31.25;;;9.80;;
56429;SDS011;42332;52.136;20.666;2024-02-21T12:50:39;37.13;;;13.38;;
56429;SDS011;42332;52.136;20.666;2024-02-21T12:53:05;34.90;;;13.15;;
56429;SDS011;42332;52.136;20.666;2024-02-21T12:55:31;41.25;;;14.13;;
56429;SDS011;42332;52.136;20.666;2024-02-21T12:57:56;25.60;;;11.32;;
56429;SDS011;42332;52.136;20.666;2024-02-21T13:00:28;39.85;;;11.02;;
56429;SDS011;42332;52.136;20.666;2024-02-21T13:02:53;27.52;;;11.40;;
56429;SDS011;42332;52.136;20.666;2024-02-21T13:05:19;17.98;;;8.23;;
56429;SDS011;42332;52.136;20.666;2024-02-21T13:07:44;28.80;;;10.88;;
56429;SDS011;42332;52.136;20.666;2024-02-21T13:10:10;36.22;;;10.55;;
56429;SDS011;42332;52.136;20.666;2024-02-21T13:12:35;29.50;;;9.88;;
56429;SDS011;42332;52.136;20.666;2024-02-21T13:15:01;25.02;;;9.52;;
56429;SDS011;42332;52.136;20.666;2024-02-21T13:17:26;28.83;;;9.55;;
56429;SDS011;42332;52.136;20.666;2024-02-21T13:19:55;29.35;;;9.95;;
56429;SDS011;42332;52.136;20.666;2024-02-21T13:22:20;27.05;;;7.18;;
56429;SDS011;42332;52.136;20.666;2024-02-21T13:24:47;27.38;;;9.38;;
56429;SDS011;42332;52.136;20.666;2024-02-21T13:27:12;26.83;;;10.85;;
56429;SDS011;42332;52.136;20.666;2024-02-21T13:29:38;30.33;;;9.90;;
56429;SDS011;42332;52.136;20.666;2024-02-21T13:32:03;23.58;;;8.98;;
56429;SDS011;42332;52.136;20.666;2024-02-21T13:34:30;22.75;;;8.63;;
56429;SDS011;42332;52.136;20.666;2024-02-21T13:36:55;40.67;;;10.02;;
56429;SDS011;42332;52.136;20.666;2024-02-21T13:39:20;30.75;;;9.27;;
56429;SDS011;42332;52.136;20.666;2024-02-21T13:41:46;31.92;;;8.55;;
56429;SDS011;42332;52.136;20.666;2024-02-21T13:44:11;23.65;;;8.32;;
56429;SDS011;42332;52.136;20.666;2024-02-21T13:46:37;26.30;;;9.07;;
56429;SDS011;42332;52.136;20.666;2024-02-21T13:49:04;25.15;;;8.43;;
56429;SDS011;42332;52.136;20.666;2024-02-21T13:51:33;21.95;;;9.35;;
56429;SDS011;42332;52.136;20.666;2024-02-21T13:54:01;33.03;;;10.80;;
56429;SDS011;42332;52.136;20.666;2024-02-21T13:56:30;19.52;;;9.65;;
56429;SDS011;42332;52.136;20.666;2024-02-21T13:58:57;25.55;;;10.60;;
56429;SDS011;42332;52.136;20.666;2024-02-21T14:01:23;27.90;;;9.25;;
56429;SDS011;42332;52.136;20.666;2024-02-21T14:03:48;19.35;;;7.95;;
56429;SDS011;42332;52.136;20.666;2024-02-21T14:06:14;23.30;;;7.45;;
56429;SDS011;42332;52.136;20.666;2024-02-21T14:08:39;21.90;;;7.82;;
56429;SDS011;42332;52.136;20.666;2024-02-21T14:11:05;22.25;;;8.38;;
56429;SDS011;42332;52.136;20.666;2024-02-21T14:13:31;23.05;;;7.82;;
56429;SDS011;42332;52.136;20.666;2024-02-21T14:15:56;22.75;;;7.32;;
56429;SDS011;42332;52.136;20.666;2024-02-21T14:18:22;21.38;;;6.40;;
56429;SDS011;42332;52.136;20.666;2024-02-21T14:20:47;28.40;;;8.68;;
56429;SDS011;42332;52.136;20.666;2024-02-21T14:23:13;34.00;;;8.18;;
56429;SDS011;42332;52.136;20.666;2024-02-21T14:25:38;24.67;;;8.18;;
56429;SDS011;42332;52.136;20.666;2024-02-21T14:28:04;18.20;;;7.18;;
56429;SDS011;42332;52.136;20.666;2024-02-21T14:30:30;17.52;;;6.47;;
56429;SDS011;42332;52.136;20.666;2024-02-21T14:32:56;20.90;;;6.22;;
56429;SDS011;42332;52.136;20.666;2024-02-21T14:35:21;23.60;;;6.60;;